DLH35X EGLL-EDDH
Flight info
| Callsign | DLH35X |
|---|---|
| Flight time | 1h 7m |
| Altitude | 39000 |
| Route | BPK Q295 SOMVA DCT MAVAS DCT VALAM DCT GASTU DCT OSTOR T904 RIBSO RIBSO3S |
| Aircraft | A346/H-SDE2E3FGHIJ3J4J5M1RWXY/LB1D1 |
Departure
| Time | 2026-04-21 12:54 |
|---|---|
| Airport | London Heathrow Airport (EGLL) |
Arrival
| Time | 2026-04-21 14:01 |
|---|---|
| Airport | Hamburg Helmut Schmidt Airport (EDDH) |
| Time | Latitude | Longitude | Altitude | Speed | Heading |
|---|---|---|---|---|---|
| 2026-04-21 12:16 | 51.46836 | -0.44881 | 94 ft | 0 kts | 360° |
| 2026-04-21 12:44 | 51.46823 | -0.44881 | 94 ft | 4 kts | 360° |
| 2026-04-21 12:45 | 51.46796 | -0.44880 | 95 ft | 4 kts | 359° |
| 2026-04-21 12:45 | 51.46773 | -0.44877 | 95 ft | 4 kts | 339° |
| 2026-04-21 12:45 | 51.46758 | -0.44860 | 95 ft | 4 kts | 302° |
| 2026-04-21 12:45 | 51.46752 | -0.44828 | 95 ft | 4 kts | 272° |
| 2026-04-21 12:46 | 51.46752 | -0.44794 | 96 ft | 4 kts | 269° |
| 2026-04-21 12:46 | 51.46752 | -0.44751 | 97 ft | 4 kts | 269° |
| 2026-04-21 12:46 | 51.46752 | -0.44739 | 97 ft | 0 kts | 269° |
| 2026-04-21 12:48 | 51.46752 | -0.44750 | 97 ft | 3 kts | 269° |
| 2026-04-21 12:48 | 51.46752 | -0.44788 | 96 ft | 5 kts | 269° |
| 2026-04-21 12:49 | 51.46752 | -0.44866 | 95 ft | 9 kts | 269° |
| 2026-04-21 12:49 | 51.46751 | -0.44993 | 95 ft | 13 kts | 269° |
| 2026-04-21 12:49 | 51.46750 | -0.45157 | 95 ft | 16 kts | 270° |
| 2026-04-21 12:49 | 51.46750 | -0.45361 | 94 ft | 20 kts | 270° |
| 2026-04-21 12:50 | 51.46749 | -0.45604 | 94 ft | 23 kts | 270° |
| 2026-04-21 12:50 | 51.46749 | -0.45878 | 97 ft | 25 kts | 270° |
| 2026-04-21 12:50 | 51.46748 | -0.46173 | 98 ft | 27 kts | 270° |
| 2026-04-21 12:50 | 51.46748 | -0.46415 | 98 ft | 17 kts | 270° |
| 2026-04-21 12:51 | 51.46748 | -0.46623 | 98 ft | 20 kts | 270° |
| 2026-04-21 12:51 | 51.46747 | -0.46867 | 98 ft | 23 kts | 269° |
| 2026-04-21 12:51 | 51.46747 | -0.47141 | 98 ft | 26 kts | 270° |
| 2026-04-21 12:51 | 51.46746 | -0.47440 | 98 ft | 28 kts | 269° |
| 2026-04-21 12:52 | 51.46744 | -0.47760 | 94 ft | 29 kts | 270° |
| 2026-04-21 12:52 | 51.46744 | -0.48050 | 94 ft | 20 kts | 270° |
| 2026-04-21 12:52 | 51.46735 | -0.48190 | 96 ft | 10 kts | 232° |
| 2026-04-21 12:52 | 51.46655 | -0.48217 | 95 ft | 14 kts | 179° |
| 2026-04-21 12:53 | 51.46560 | -0.48215 | 96 ft | 11 kts | 179° |
| 2026-04-21 12:53 | 51.46489 | -0.48190 | 99 ft | 11 kts | 132° |
| 2026-04-21 12:53 | 51.46480 | -0.48045 | 95 ft | 17 kts | 89° |
| 2026-04-21 12:53 | 51.46482 | -0.47541 | 94 ft | 77 kts | 90° |
| 2026-04-21 12:54 | 51.46485 | -0.46352 | 100 ft | 134 kts | 90° |
| 2026-04-21 12:54 | 51.46488 | -0.44659 | 340 ft | 160 kts | 89° |
| 2026-04-21 12:54 | 51.46484 | -0.42855 | 985 ft | 162 kts | 89° |
| 2026-04-21 12:54 | 51.46682 | -0.41049 | 1513 ft | 174 kts | 64° |
| 2026-04-21 12:55 | 51.47442 | -0.39452 | 1920 ft | 190 kts | 51° |
| 2026-04-21 12:55 | 51.48353 | -0.37824 | 2411 ft | 199 kts | 51° |
| 2026-04-21 12:55 | 51.49285 | -0.36111 | 3038 ft | 207 kts | 52° |
| 2026-04-21 12:55 | 51.50214 | -0.34313 | 3770 ft | 215 kts | 53° |
| 2026-04-21 12:56 | 51.51201 | -0.32390 | 4307 ft | 232 kts | 53° |
| 2026-04-21 12:56 | 51.52251 | -0.30341 | 5058 ft | 240 kts | 52° |
| 2026-04-21 12:56 | 51.53061 | -0.28015 | 5857 ft | 243 kts | 75° |
| 2026-04-21 12:56 | 51.53479 | -0.25348 | 6719 ft | 248 kts | 77° |
| 2026-04-21 12:57 | 51.53916 | -0.22664 | 7670 ft | 249 kts | 73° |
| 2026-04-21 12:57 | 51.54588 | -0.20120 | 8567 ft | 254 kts | 61° |
| 2026-04-21 12:57 | 51.55808 | -0.17984 | 9329 ft | 268 kts | 37° |
| 2026-04-21 12:57 | 51.57552 | -0.16791 | 10313 ft | 280 kts | 15° |
| 2026-04-21 12:58 | 51.59589 | -0.16789 | 10720 ft | 310 kts | 352° |
| 2026-04-21 12:58 | 51.61783 | -0.17420 | 11092 ft | 328 kts | 1° |
| 2026-04-21 12:58 | 51.64066 | -0.16855 | 11465 ft | 339 kts | 24° |
| 2026-04-21 12:58 | 51.66254 | -0.15314 | 12103 ft | 349 kts | 26° |
| 2026-04-21 12:59 | 51.68520 | -0.13789 | 12876 ft | 356 kts | 21° |
| 2026-04-21 12:59 | 51.70859 | -0.12569 | 13739 ft | 361 kts | 21° |
| 2026-04-21 12:59 | 51.73044 | -0.10591 | 14463 ft | 363 kts | 41° |
| 2026-04-21 12:59 | 51.74660 | -0.07500 | 15262 ft | 360 kts | 61° |
| 2026-04-21 13:00 | 51.75557 | -0.03731 | 16081 ft | 363 kts | 78° |
| 2026-04-21 13:00 | 51.75912 | 0.00283 | 17071 ft | 359 kts | 82° |
| 2026-04-21 13:00 | 51.76232 | 0.04235 | 18414 ft | 350 kts | 82° |
| 2026-04-21 13:00 | 51.76548 | 0.08107 | 19445 ft | 348 kts | 82° |
| 2026-04-21 13:01 | 51.76888 | 0.12031 | 20015 ft | 358 kts | 78° |
| 2026-04-21 13:01 | 51.77451 | 0.15998 | 20530 ft | 367 kts | 71° |
| 2026-04-21 13:01 | 51.78252 | 0.19953 | 21128 ft | 373 kts | 67° |
| 2026-04-21 13:01 | 51.79136 | 0.23880 | 21759 ft | 380 kts | 66° |
| 2026-04-21 13:02 | 51.80068 | 0.27932 | 22259 ft | 391 kts | 66° |
| 2026-04-21 13:02 | 51.81035 | 0.32143 | 22553 ft | 407 kts | 66° |
| 2026-04-21 13:02 | 51.83048 | 0.40997 | 23505 ft | 426 kts | 68° |
| 2026-04-21 13:03 | 51.84054 | 0.45511 | 24235 ft | 428 kts | 68° |
| 2026-04-21 13:03 | 51.85070 | 0.50066 | 24814 ft | 432 kts | 67° |
| 2026-04-21 13:03 | 51.86097 | 0.54663 | 25348 ft | 435 kts | 68° |
| 2026-04-21 13:03 | 51.87127 | 0.59292 | 25892 ft | 439 kts | 68° |
| 2026-04-21 13:04 | 51.88165 | 0.63974 | 26343 ft | 444 kts | 67° |
| 2026-04-21 13:04 | 51.89200 | 0.68644 | 26790 ft | 449 kts | 67° |
| 2026-04-21 13:04 | 51.90258 | 0.73435 | 27246 ft | 454 kts | 66° |
| 2026-04-21 13:04 | 51.91328 | 0.78290 | 27698 ft | 459 kts | 66° |
| 2026-04-21 13:05 | 51.92406 | 0.83189 | 28133 ft | 464 kts | 66° |
| 2026-04-21 13:05 | 51.93502 | 0.88143 | 28568 ft | 469 kts | 65° |
| 2026-04-21 13:05 | 51.94608 | 0.93146 | 29005 ft | 474 kts | 65° |
| 2026-04-21 13:05 | 51.95724 | 0.98208 | 29455 ft | 478 kts | 65° |
| 2026-04-21 13:06 | 51.96848 | 1.03300 | 29940 ft | 481 kts | 65° |
| 2026-04-21 13:06 | 51.97957 | 1.08367 | 30443 ft | 484 kts | 65° |
| 2026-04-21 13:06 | 51.99084 | 1.13528 | 30920 ft | 484 kts | 65° |
| 2026-04-21 13:06 | 52.00204 | 1.18669 | 31530 ft | 482 kts | 65° |
| 2026-04-21 13:07 | 52.01319 | 1.23798 | 32150 ft | 480 kts | 65° |
| 2026-04-21 13:07 | 52.02426 | 1.28912 | 32755 ft | 478 kts | 66° |
| 2026-04-21 13:07 | 52.03526 | 1.34004 | 33335 ft | 477 kts | 66° |
| 2026-04-21 13:07 | 52.04622 | 1.39083 | 33920 ft | 475 kts | 66° |
| 2026-04-21 13:08 | 52.05708 | 1.44137 | 34493 ft | 473 kts | 66° |
| 2026-04-21 13:08 | 52.06788 | 1.49178 | 34986 ft | 471 kts | 67° |
| 2026-04-21 13:08 | 52.07849 | 1.54135 | 35443 ft | 469 kts | 67° |
| 2026-04-21 13:08 | 52.08918 | 1.59154 | 35874 ft | 469 kts | 68° |
| 2026-04-21 13:09 | 52.09982 | 1.64161 | 36269 ft | 468 kts | 68° |
| 2026-04-21 13:09 | 52.11044 | 1.69173 | 36649 ft | 468 kts | 68° |
| 2026-04-21 13:09 | 52.12104 | 1.74185 | 37018 ft | 467 kts | 68° |
| 2026-04-21 13:09 | 52.13159 | 1.79185 | 37352 ft | 467 kts | 68° |
| 2026-04-21 13:10 | 52.14213 | 1.84198 | 37692 ft | 467 kts | 68° |
| 2026-04-21 13:10 | 52.15267 | 1.89212 | 37972 ft | 468 kts | 68° |
| 2026-04-21 13:10 | 52.16305 | 1.94171 | 38188 ft | 470 kts | 68° |
| 2026-04-21 13:10 | 52.17361 | 1.99222 | 38467 ft | 471 kts | 68° |
| 2026-04-21 13:11 | 52.18413 | 2.04281 | 38709 ft | 472 kts | 68° |
| 2026-04-21 13:11 | 52.19467 | 2.09352 | 38943 ft | 473 kts | 68° |
| 2026-04-21 13:11 | 52.20521 | 2.14442 | 39136 ft | 474 kts | 69° |
| 2026-04-21 13:11 | 52.21577 | 2.19541 | 39285 ft | 475 kts | 69° |
| 2026-04-21 13:12 | 52.23689 | 2.29784 | 39376 ft | 476 kts | 68° |
| 2026-04-21 13:12 | 52.25778 | 2.39981 | 39372 ft | 476 kts | 69° |
| 2026-04-21 13:13 | 52.27867 | 2.50242 | 39392 ft | 475 kts | 69° |
| 2026-04-21 13:13 | 52.29943 | 2.60487 | 39383 ft | 474 kts | 69° |
| 2026-04-21 13:14 | 52.31886 | 2.70813 | 39385 ft | 475 kts | 70° |
| 2026-04-21 13:14 | 52.33701 | 2.81128 | 39380 ft | 475 kts | 71° |
| 2026-04-21 13:15 | 52.35519 | 2.91536 | 39385 ft | 475 kts | 71° |
| 2026-04-21 13:15 | 52.37328 | 3.01941 | 39380 ft | 474 kts | 71° |
| 2026-04-21 13:16 | 52.39186 | 3.12298 | 39374 ft | 473 kts | 69° |
| 2026-04-21 13:16 | 52.41559 | 3.22245 | 39362 ft | 471 kts | 63° |
| 2026-04-21 13:17 | 52.44395 | 3.31919 | 39370 ft | 470 kts | 61° |
| 2026-04-21 13:17 | 52.47261 | 3.41565 | 39364 ft | 470 kts | 61° |
| 2026-04-21 13:18 | 52.50112 | 3.51209 | 39374 ft | 468 kts | 61° |
| 2026-04-21 13:18 | 52.52940 | 3.60825 | 39377 ft | 467 kts | 62° |
| 2026-04-21 13:19 | 52.55736 | 3.70389 | 39376 ft | 467 kts | 62° |
| 2026-04-21 13:19 | 52.58542 | 3.80027 | 39375 ft | 467 kts | 62° |
| 2026-04-21 13:20 | 52.61340 | 3.89669 | 39386 ft | 466 kts | 62° |
| 2026-04-21 13:20 | 52.64131 | 3.99329 | 39386 ft | 466 kts | 63° |
| 2026-04-21 13:21 | 52.66897 | 4.08929 | 39384 ft | 467 kts | 63° |
| 2026-04-21 13:21 | 52.69674 | 4.18616 | 39387 ft | 467 kts | 63° |
| 2026-04-21 13:22 | 52.72429 | 4.28286 | 39380 ft | 464 kts | 63° |
| 2026-04-21 13:22 | 52.75173 | 4.37943 | 39379 ft | 464 kts | 63° |
| 2026-04-21 13:23 | 52.77895 | 4.47549 | 39385 ft | 464 kts | 62° |
| 2026-04-21 13:23 | 52.80621 | 4.57221 | 39384 ft | 464 kts | 62° |
| 2026-04-21 13:24 | 52.83339 | 4.66910 | 39382 ft | 464 kts | 62° |
| 2026-04-21 13:24 | 52.86055 | 4.76612 | 39390 ft | 464 kts | 63° |
| 2026-04-21 13:25 | 52.88758 | 4.86331 | 39388 ft | 464 kts | 63° |
| 2026-04-21 13:25 | 52.91437 | 4.95996 | 39390 ft | 464 kts | 63° |
| 2026-04-21 13:26 | 52.94121 | 5.05717 | 39397 ft | 463 kts | 63° |
| 2026-04-21 13:26 | 52.96794 | 5.15454 | 39378 ft | 463 kts | 63° |
| 2026-04-21 13:27 | 52.99457 | 5.25191 | 39381 ft | 463 kts | 63° |
| 2026-04-21 13:27 | 53.02114 | 5.34945 | 39384 ft | 463 kts | 63° |
| 2026-04-21 13:28 | 53.04632 | 5.44739 | 39374 ft | 463 kts | 66° |
| 2026-04-21 13:28 | 53.07050 | 5.54686 | 39374 ft | 463 kts | 66° |
| 2026-04-21 13:29 | 53.09463 | 5.64661 | 39391 ft | 464 kts | 66° |
| 2026-04-21 13:29 | 53.11870 | 5.74659 | 39389 ft | 464 kts | 66° |
| 2026-04-21 13:30 | 53.14250 | 5.84585 | 39202 ft | 464 kts | 66° |
| 2026-04-21 13:30 | 53.15447 | 5.89594 | 38967 ft | 465 kts | 66° |
| 2026-04-21 13:30 | 53.16638 | 5.94594 | 38689 ft | 463 kts | 66° |
| 2026-04-21 13:31 | 53.17826 | 5.99584 | 38413 ft | 463 kts | 67° |
| 2026-04-21 13:31 | 53.19007 | 6.04569 | 38140 ft | 460 kts | 67° |
| 2026-04-21 13:31 | 53.20183 | 6.09538 | 37874 ft | 460 kts | 67° |
| 2026-04-21 13:31 | 53.21353 | 6.14498 | 37619 ft | 459 kts | 67° |
| 2026-04-21 13:32 | 53.22523 | 6.19458 | 37366 ft | 457 kts | 68° |
| 2026-04-21 13:32 | 53.23680 | 6.24382 | 37099 ft | 454 kts | 68° |
| 2026-04-21 13:32 | 53.24820 | 6.29241 | 36842 ft | 455 kts | 68° |
| 2026-04-21 13:32 | 53.25968 | 6.34152 | 36610 ft | 453 kts | 68° |
| 2026-04-21 13:33 | 53.27116 | 6.39069 | 36327 ft | 454 kts | 68° |
| 2026-04-21 13:33 | 53.28261 | 6.43985 | 35989 ft | 452 kts | 68° |
| 2026-04-21 13:33 | 53.29401 | 6.48891 | 35583 ft | 453 kts | 68° |
| 2026-04-21 13:33 | 53.30537 | 6.53789 | 35092 ft | 451 kts | 69° |
| 2026-04-21 13:34 | 53.31668 | 6.58680 | 34546 ft | 449 kts | 69° |
| 2026-04-21 13:34 | 53.32792 | 6.63549 | 33965 ft | 447 kts | 69° |
| 2026-04-21 13:34 | 53.33909 | 6.68397 | 33416 ft | 444 kts | 69° |
| 2026-04-21 13:34 | 53.35012 | 6.73187 | 33094 ft | 436 kts | 70° |
| 2026-04-21 13:35 | 53.36079 | 6.77839 | 32732 ft | 431 kts | 70° |
| 2026-04-21 13:35 | 53.37144 | 6.82498 | 32381 ft | 424 kts | 70° |
| 2026-04-21 13:35 | 53.38189 | 6.87080 | 32026 ft | 418 kts | 70° |
| 2026-04-21 13:35 | 53.39218 | 6.91604 | 31671 ft | 412 kts | 70° |
| 2026-04-21 13:36 | 53.40234 | 6.96075 | 31312 ft | 407 kts | 71° |
| 2026-04-21 13:36 | 53.41231 | 7.00473 | 30956 ft | 402 kts | 71° |
| 2026-04-21 13:36 | 53.42219 | 7.04839 | 30602 ft | 397 kts | 71° |
| 2026-04-21 13:36 | 53.43180 | 7.09099 | 30214 ft | 393 kts | 71° |
| 2026-04-21 13:37 | 53.44138 | 7.13359 | 29820 ft | 388 kts | 71° |
| 2026-04-21 13:37 | 53.45084 | 7.17573 | 29447 ft | 383 kts | 71° |
| 2026-04-21 13:37 | 53.46015 | 7.21727 | 29089 ft | 378 kts | 71° |
| 2026-04-21 13:37 | 53.46934 | 7.25834 | 28730 ft | 373 kts | 71° |
| 2026-04-21 13:38 | 53.47833 | 7.29892 | 28387 ft | 368 kts | 73° |
| 2026-04-21 13:38 | 53.48585 | 7.33971 | 28062 ft | 366 kts | 75° |
| 2026-04-21 13:38 | 53.49294 | 7.38144 | 27773 ft | 374 kts | 75° |
| 2026-04-21 13:38 | 53.50004 | 7.42356 | 27480 ft | 374 kts | 75° |
| 2026-04-21 13:39 | 53.50708 | 7.46504 | 27171 ft | 373 kts | 75° |
| 2026-04-21 13:39 | 53.51420 | 7.50687 | 26815 ft | 371 kts | 75° |
| 2026-04-21 13:39 | 53.52130 | 7.54851 | 26449 ft | 369 kts | 75° |
| 2026-04-21 13:39 | 53.52835 | 7.58991 | 26069 ft | 367 kts | 75° |
| 2026-04-21 13:40 | 53.53535 | 7.63102 | 25680 ft | 364 kts | 75° |
| 2026-04-21 13:40 | 53.54229 | 7.67188 | 25292 ft | 362 kts | 75° |
| 2026-04-21 13:40 | 53.54919 | 7.71250 | 24897 ft | 359 kts | 75° |
| 2026-04-21 13:40 | 53.55602 | 7.75284 | 24503 ft | 357 kts | 75° |
| 2026-04-21 13:41 | 53.56280 | 7.79294 | 24125 ft | 355 kts | 75° |
| 2026-04-21 13:41 | 53.56954 | 7.83279 | 23720 ft | 352 kts | 75° |
| 2026-04-21 13:41 | 53.57611 | 7.87179 | 23304 ft | 349 kts | 75° |
| 2026-04-21 13:41 | 53.58271 | 7.91099 | 22918 ft | 346 kts | 75° |
| 2026-04-21 13:42 | 53.58921 | 7.94975 | 22544 ft | 342 kts | 75° |
| 2026-04-21 13:42 | 53.59565 | 7.98822 | 22161 ft | 339 kts | 75° |
| 2026-04-21 13:42 | 53.60201 | 8.02632 | 21796 ft | 336 kts | 75° |
| 2026-04-21 13:42 | 53.60831 | 8.06414 | 21422 ft | 334 kts | 75° |
| 2026-04-21 13:43 | 53.61455 | 8.10167 | 21044 ft | 331 kts | 75° |
| 2026-04-21 13:43 | 53.62073 | 8.13895 | 20697 ft | 329 kts | 75° |
| 2026-04-21 13:43 | 53.62686 | 8.17599 | 20330 ft | 327 kts | 75° |
| 2026-04-21 13:43 | 53.63287 | 8.21233 | 19958 ft | 325 kts | 75° |
| 2026-04-21 13:44 | 53.63891 | 8.24900 | 19600 ft | 324 kts | 75° |
| 2026-04-21 13:44 | 53.64492 | 8.28551 | 19243 ft | 322 kts | 75° |
| 2026-04-21 13:44 | 53.65088 | 8.32187 | 18885 ft | 321 kts | 75° |
| 2026-04-21 13:44 | 53.65683 | 8.35818 | 18508 ft | 320 kts | 75° |
| 2026-04-21 13:45 | 53.66274 | 8.39433 | 18119 ft | 318 kts | 75° |
| 2026-04-21 13:45 | 53.66860 | 8.43025 | 17764 ft | 316 kts | 75° |
| 2026-04-21 13:45 | 53.67440 | 8.46592 | 17414 ft | 314 kts | 75° |
| 2026-04-21 13:45 | 53.68008 | 8.50083 | 17060 ft | 312 kts | 75° |
| 2026-04-21 13:46 | 53.68579 | 8.53610 | 16708 ft | 310 kts | 75° |
| 2026-04-21 13:46 | 53.69146 | 8.57113 | 16363 ft | 308 kts | 75° |
| 2026-04-21 13:46 | 53.69708 | 8.60591 | 16017 ft | 306 kts | 75° |
| 2026-04-21 13:46 | 53.70266 | 8.64055 | 15676 ft | 305 kts | 75° |
| 2026-04-21 13:47 | 53.70821 | 8.67511 | 15327 ft | 304 kts | 75° |
| 2026-04-21 13:47 | 53.71335 | 8.70963 | 14932 ft | 302 kts | 81° |
| 2026-04-21 13:47 | 53.71200 | 8.74465 | 13784 ft | 313 kts | 108° |
| 2026-04-21 13:47 | 53.70235 | 8.77834 | 12601 ft | 322 kts | 115° |
| 2026-04-21 13:48 | 53.69239 | 8.81230 | 11569 ft | 322 kts | 113° |
| 2026-04-21 13:48 | 53.68296 | 8.84583 | 11056 ft | 309 kts | 112° |
| 2026-04-21 13:48 | 53.67404 | 8.87802 | 10568 ft | 296 kts | 112° |
| 2026-04-21 13:48 | 53.66565 | 8.90856 | 10264 ft | 278 kts | 112° |
| 2026-04-21 13:49 | 53.65772 | 8.93757 | 9917 ft | 267 kts | 112° |
| 2026-04-21 13:49 | 53.65001 | 8.96592 | 9579 ft | 264 kts | 112° |
| 2026-04-21 13:49 | 53.64496 | 8.98456 | 9362 ft | 263 kts | 112° |
| 2026-04-21 13:49 | 53.63494 | 9.02148 | 8943 ft | 260 kts | 112° |
| 2026-04-21 13:50 | 53.62744 | 9.04908 | 8648 ft | 257 kts | 112° |
| 2026-04-21 13:50 | 53.62002 | 9.07638 | 8355 ft | 255 kts | 112° |
| 2026-04-21 13:50 | 53.61265 | 9.10343 | 8056 ft | 253 kts | 112° |
| 2026-04-21 13:50 | 53.60533 | 9.13030 | 7763 ft | 251 kts | 112° |
| 2026-04-21 13:51 | 53.60050 | 9.14805 | 7588 ft | 252 kts | 112° |
| 2026-04-21 13:51 | 53.59325 | 9.17503 | 7186 ft | 255 kts | 111° |
| 2026-04-21 13:51 | 53.58590 | 9.20249 | 6721 ft | 258 kts | 111° |
| 2026-04-21 13:51 | 53.57854 | 9.22999 | 6378 ft | 256 kts | 111° |
| 2026-04-21 13:52 | 53.56892 | 9.26604 | 5919 ft | 254 kts | 111° |
| 2026-04-21 13:52 | 53.56170 | 9.29317 | 5549 ft | 253 kts | 111° |
| 2026-04-21 13:52 | 53.55458 | 9.32012 | 5273 ft | 250 kts | 111° |
| 2026-04-21 13:52 | 53.54992 | 9.33779 | 5087 ft | 249 kts | 112° |
| 2026-04-21 13:53 | 53.54289 | 9.36456 | 4838 ft | 249 kts | 111° |
| 2026-04-21 13:53 | 53.53588 | 9.39117 | 4566 ft | 249 kts | 111° |
| 2026-04-21 13:53 | 53.52883 | 9.41779 | 4306 ft | 249 kts | 111° |
| 2026-04-21 13:53 | 53.52170 | 9.44445 | 4028 ft | 250 kts | 111° |
| 2026-04-21 13:54 | 53.51457 | 9.47085 | 3830 ft | 245 kts | 111° |
| 2026-04-21 13:54 | 53.50532 | 9.50461 | 3630 ft | 235 kts | 112° |
| 2026-04-21 13:54 | 53.50071 | 9.52132 | 3532 ft | 230 kts | 111° |
| 2026-04-21 13:54 | 53.49397 | 9.54527 | 3327 ft | 223 kts | 111° |
| 2026-04-21 13:55 | 53.48744 | 9.56834 | 3114 ft | 219 kts | 111° |
| 2026-04-21 13:55 | 53.48191 | 9.59182 | 3006 ft | 215 kts | 98° |
| 2026-04-21 13:55 | 53.48030 | 9.61676 | 3032 ft | 214 kts | 90° |
| 2026-04-21 13:55 | 53.47974 | 9.64164 | 3023 ft | 213 kts | 89° |
| 2026-04-21 13:56 | 53.47967 | 9.66657 | 3014 ft | 213 kts | 79° |
| 2026-04-21 13:56 | 53.48424 | 9.68961 | 3019 ft | 202 kts | 60° |
| 2026-04-21 13:56 | 53.49167 | 9.70844 | 3045 ft | 184 kts | 52° |
| 2026-04-21 13:56 | 53.49968 | 9.72410 | 3021 ft | 171 kts | 49° |
| 2026-04-21 13:57 | 53.50736 | 9.73865 | 3009 ft | 168 kts | 49° |
| 2026-04-21 13:57 | 53.51503 | 9.75353 | 3023 ft | 169 kts | 50° |
| 2026-04-21 13:57 | 53.52260 | 9.76867 | 3035 ft | 169 kts | 50° |
| 2026-04-21 13:57 | 53.53008 | 9.78387 | 2914 ft | 169 kts | 51° |
| 2026-04-21 13:58 | 53.53751 | 9.79909 | 2694 ft | 168 kts | 50° |
| 2026-04-21 13:58 | 53.54496 | 9.81435 | 2465 ft | 168 kts | 51° |
| 2026-04-21 13:58 | 53.55236 | 9.82956 | 2229 ft | 168 kts | 50° |
| 2026-04-21 13:58 | 53.55979 | 9.84474 | 1983 ft | 168 kts | 51° |
| 2026-04-21 13:59 | 53.56713 | 9.85971 | 1723 ft | 161 kts | 50° |
| 2026-04-21 13:59 | 53.57398 | 9.87370 | 1504 ft | 152 kts | 50° |
| 2026-04-21 13:59 | 53.58053 | 9.88705 | 1277 ft | 144 kts | 50° |
| 2026-04-21 13:59 | 53.58689 | 9.89997 | 1109 ft | 143 kts | 50° |
| 2026-04-21 14:00 | 53.59318 | 9.91280 | 884 ft | 141 kts | 50° |
| 2026-04-21 14:00 | 53.59936 | 9.92568 | 694 ft | 141 kts | 51° |
| 2026-04-21 14:00 | 53.60564 | 9.93841 | 534 ft | 141 kts | 51° |
| 2026-04-21 14:00 | 53.61197 | 9.95105 | 319 ft | 141 kts | 49° |
| 2026-04-21 14:01 | 53.61821 | 9.96365 | 142 ft | 139 kts | 50° |
| 2026-04-21 14:01 | 53.62424 | 9.97584 | 42 ft | 126 kts | 50° |
| 2026-04-21 14:01 | 53.62867 | 9.98477 | 50 ft | 71 kts | 50° |
| 2026-04-21 14:01 | 53.63098 | 9.98945 | 47 ft | 42 kts | 50° |
| 2026-04-21 14:02 | 53.63250 | 9.99265 | 50 ft | 29 kts | 59° |
| 2026-04-21 14:02 | 53.63287 | 9.99540 | 50 ft | 19 kts | 96° |
| 2026-04-21 14:02 | 53.63276 | 9.99720 | 57 ft | 14 kts | 86° |
| 2026-04-21 14:03 | 53.63406 | 10.00017 | 51 ft | 8 kts | 49° |
| 2026-04-21 14:03 | 53.63426 | 10.00112 | 51 ft | 11 kts | 106° |
| 2026-04-21 14:03 | 53.63363 | 10.00193 | 51 ft | 14 kts | 174° |
| 2026-04-21 14:03 | 53.63250 | 10.00209 | 50 ft | 18 kts | 177° |
| 2026-04-21 14:04 | 53.63132 | 10.00219 | 57 ft | 10 kts | 184° |
| 2026-04-21 14:04 | 53.63076 | 10.00212 | 50 ft | 6 kts | 184° |
| 2026-04-21 14:04 | 53.63051 | 10.00240 | 53 ft | 6 kts | 123° |
| 2026-04-21 14:04 | 53.63023 | 10.00314 | 52 ft | 6 kts | 122° |
| 2026-04-21 14:05 | 53.63013 | 10.00339 | 50 ft | 2 kts | 122° |
| 2026-04-21 14:05 | 53.63012 | 10.00340 | 50 ft | 0 kts | 122° |